sensor_id;sensor_type;location;lat;lon;timestamp;P1;durP1;ratioP1;P2;durP2;ratioP2
57969;SDS011;43777;42.656;23.264;2022-10-16T00:01:59;15.68;;;12.65;;
57969;SDS011;43777;42.656;23.264;2022-10-16T00:04:25;17.90;;;13.77;;
57969;SDS011;43777;42.656;23.264;2022-10-16T00:06:52;15.48;;;12.50;;
57969;SDS011;43777;42.656;23.264;2022-10-16T00:09:18;17.50;;;13.43;;
57969;SDS011;43777;42.656;23.264;2022-10-16T00:11:44;12.93;;;9.55;;
57969;SDS011;43777;42.656;23.264;2022-10-16T00:14:12;15.00;;;9.25;;
57969;SDS011;43777;42.656;23.264;2022-10-16T00:16:38;14.02;;;8.52;;
57969;SDS011;43777;42.656;23.264;2022-10-16T00:19:04;10.05;;;8.10;;
57969;SDS011;43777;42.656;23.264;2022-10-16T00:21:30;12.52;;;8.50;;
57969;SDS011;43777;42.656;23.264;2022-10-16T00:24:01;11.95;;;8.40;;
57969;SDS011;43777;42.656;23.264;2022-10-16T00:26:28;8.88;;;7.95;;
57969;SDS011;43777;42.656;23.264;2022-10-16T00:28:54;10.45;;;8.60;;
57969;SDS011;43777;42.656;23.264;2022-10-16T00:31:21;11.85;;;9.82;;
57969;SDS011;43777;42.656;23.264;2022-10-16T00:33:47;17.35;;;11.57;;
57969;SDS011;43777;42.656;23.264;2022-10-16T00:36:14;16.70;;;12.10;;
57969;SDS011;43777;42.656;23.264;2022-10-16T00:38:41;15.27;;;11.73;;
57969;SDS011;43777;42.656;23.264;2022-10-16T00:41:07;17.88;;;13.43;;
57969;SDS011;43777;42.656;23.264;2022-10-16T00:48:40;13.10;;;9.63;;
57969;SDS011;43777;42.656;23.264;2022-10-16T00:51:06;12.63;;;9.25;;
57969;SDS011;43777;42.656;23.264;2022-10-16T00:53:33;12.45;;;10.25;;
57969;SDS011;43777;42.656;23.264;2022-10-16T00:55:59;20.25;;;13.45;;
57969;SDS011;43777;42.656;23.264;2022-10-16T00:58:25;17.27;;;12.90;;
57969;SDS011;43777;42.656;23.264;2022-10-16T01:00:51;17.83;;;13.38;;
57969;SDS011;43777;42.656;23.264;2022-10-16T01:05:51;15.88;;;10.25;;
57969;SDS011;43777;42.656;23.264;2022-10-16T01:08:40;14.63;;;9.90;;
57969;SDS011;43777;42.656;23.264;2022-10-16T01:11:14;13.30;;;10.20;;
57969;SDS011;43777;42.656;23.264;2022-10-16T01:13:44;11.20;;;9.93;;
57969;SDS011;43777;42.656;23.264;2022-10-16T01:21:50;11.40;;;9.00;;
57969;SDS011;43777;42.656;23.264;2022-10-16T01:31:50;10.43;;;8.07;;
57969;SDS011;43777;42.656;23.264;2022-10-16T01:34:22;10.30;;;7.20;;
57969;SDS011;43777;42.656;23.264;2022-10-16T01:36:53;8.27;;;6.55;;
57969;SDS011;43777;42.656;23.264;2022-10-16T01:39:22;7.95;;;6.47;;
57969;SDS011;43777;42.656;23.264;2022-10-16T01:41:54;7.75;;;6.30;;
57969;SDS011;43777;42.656;23.264;2022-10-16T01:44:25;8.93;;;5.82;;
57969;SDS011;43777;42.656;23.264;2022-10-16T01:46:52;7.38;;;6.18;;
57969;SDS011;43777;42.656;23.264;2022-10-16T01:49:20;7.10;;;6.03;;
57969;SDS011;43777;42.656;23.264;2022-10-16T01:51:48;10.52;;;6.50;;
57969;SDS011;43777;42.656;23.264;2022-10-16T01:54:15;7.88;;;5.90;;
57969;SDS011;43777;42.656;23.264;2022-10-16T01:56:42;6.70;;;6.00;;
57969;SDS011;43777;42.656;23.264;2022-10-16T01:59:13;8.40;;;5.82;;
57969;SDS011;43777;42.656;23.264;2022-10-16T02:01:42;6.97;;;6.07;;
57969;SDS011;43777;42.656;23.264;2022-10-16T02:04:15;6.90;;;6.05;;
57969;SDS011;43777;42.656;23.264;2022-10-16T02:06:41;6.18;;;5.57;;
57969;SDS011;43777;42.656;23.264;2022-10-16T02:09:07;7.80;;;5.88;;
57969;SDS011;43777;42.656;23.264;2022-10-16T02:11:34;6.93;;;6.00;;
57969;SDS011;43777;42.656;23.264;2022-10-16T02:14:01;8.63;;;5.68;;
57969;SDS011;43777;42.656;23.264;2022-10-16T02:16:33;7.20;;;5.80;;
57969;SDS011;43777;42.656;23.264;2022-10-16T02:18:59;7.00;;;6.30;;
57969;SDS011;43777;42.656;23.264;2022-10-16T02:21:27;9.80;;;6.55;;
57969;SDS011;43777;42.656;23.264;2022-10-16T02:23:57;6.53;;;5.82;;
57969;SDS011;43777;42.656;23.264;2022-10-16T02:26:28;9.30;;;6.97;;
57969;SDS011;43777;42.656;23.264;2022-10-16T02:28:57;10.10;;;6.38;;
57969;SDS011;43777;42.656;23.264;2022-10-16T02:31:27;7.22;;;6.20;;
57969;SDS011;43777;42.656;23.264;2022-10-16T02:33:54;8.40;;;6.80;;
57969;SDS011;43777;42.656;23.264;2022-10-16T02:36:22;8.60;;;6.57;;
57969;SDS011;43777;42.656;23.264;2022-10-16T02:38:48;7.38;;;6.55;;
57969;SDS011;43777;42.656;23.264;2022-10-16T02:41:14;7.50;;;6.70;;
57969;SDS011;43777;42.656;23.264;2022-10-16T02:43:40;8.43;;;6.50;;
57969;SDS011;43777;42.656;23.264;2022-10-16T02:46:06;9.77;;;6.68;;
57969;SDS011;43777;42.656;23.264;2022-10-16T02:48:32;9.23;;;6.90;;
57969;SDS011;43777;42.656;23.264;2022-10-16T02:50:59;9.15;;;6.68;;
57969;SDS011;43777;42.656;23.264;2022-10-16T02:53:25;8.30;;;7.40;;
57969;SDS011;43777;42.656;23.264;2022-10-16T02:55:51;8.85;;;7.18;;
57969;SDS011;43777;42.656;23.264;2022-10-16T02:58:17;8.05;;;6.63;;
57969;SDS011;43777;42.656;23.264;2022-10-16T03:00:43;7.93;;;7.13;;
57969;SDS011;43777;42.656;23.264;2022-10-16T03:03:09;8.63;;;7.50;;
57969;SDS011;43777;42.656;23.264;2022-10-16T03:05:36;8.07;;;7.10;;
57969;SDS011;43777;42.656;23.264;2022-10-16T03:08:02;7.53;;;6.72;;
57969;SDS011;43777;42.656;23.264;2022-10-16T03:10:28;7.00;;;6.30;;
57969;SDS011;43777;42.656;23.264;2022-10-16T03:12:54;8.20;;;6.55;;
57969;SDS011;43777;42.656;23.264;2022-10-16T03:15:20;8.32;;;7.43;;
57969;SDS011;43777;42.656;23.264;2022-10-16T03:17:46;9.50;;;7.30;;
57969;SDS011;43777;42.656;23.264;2022-10-16T03:20:12;8.18;;;6.57;;
57969;SDS011;43777;42.656;23.264;2022-10-16T03:22:38;8.52;;;7.53;;
57969;SDS011;43777;42.656;23.264;2022-10-16T03:25:04;11.85;;;8.27;;
57969;SDS011;43777;42.656;23.264;2022-10-16T03:27:31;8.95;;;7.45;;
57969;SDS011;43777;42.656;23.264;2022-10-16T03:29:57;12.63;;;8.20;;
57969;SDS011;43777;42.656;23.264;2022-10-16T03:32:23;9.88;;;7.95;;
57969;SDS011;43777;42.656;23.264;2022-10-16T03:34:50;9.15;;;7.50;;
57969;SDS011;43777;42.656;23.264;2022-10-16T03:37:17;9.38;;;7.93;;
57969;SDS011;43777;42.656;23.264;2022-10-16T03:39:44;15.98;;;8.57;;
57969;SDS011;43777;42.656;23.264;2022-10-16T03:42:10;11.45;;;8.27;;
57969;SDS011;43777;42.656;23.264;2022-10-16T03:44:36;9.95;;;7.90;;
57969;SDS011;43777;42.656;23.264;2022-10-16T03:47:02;10.20;;;8.48;;
57969;SDS011;43777;42.656;23.264;2022-10-16T03:49:28;11.52;;;9.43;;
57969;SDS011;43777;42.656;23.264;2022-10-16T03:51:57;11.32;;;8.80;;
57969;SDS011;43777;42.656;23.264;2022-10-16T03:54:23;11.57;;;9.20;;
57969;SDS011;43777;42.656;23.264;2022-10-16T03:56:49;11.30;;;9.18;;
57969;SDS011;43777;42.656;23.264;2022-10-16T03:59:15;12.48;;;9.70;;
57969;SDS011;43777;42.656;23.264;2022-10-16T04:01:41;10.73;;;9.13;;
57969;SDS011;43777;42.656;23.264;2022-10-16T04:04:07;10.90;;;9.45;;
57969;SDS011;43777;42.656;23.264;2022-10-16T04:06:33;11.32;;;9.40;;
57969;SDS011;43777;42.656;23.264;2022-10-16T04:09:00;11.93;;;9.55;;
57969;SDS011;43777;42.656;23.264;2022-10-16T04:11:26;10.55;;;9.45;;
57969;SDS011;43777;42.656;23.264;2022-10-16T04:13:52;10.35;;;9.13;;
57969;SDS011;43777;42.656;23.264;2022-10-16T04:16:18;10.65;;;8.82;;
57969;SDS011;43777;42.656;23.264;2022-10-16T04:18:45;11.00;;;9.27;;
57969;SDS011;43777;42.656;23.264;2022-10-16T04:21:11;12.45;;;9.75;;
57969;SDS011;43777;42.656;23.264;2022-10-16T04:23:40;10.43;;;9.30;;
57969;SDS011;43777;42.656;23.264;2022-10-16T04:26:06;12.05;;;9.18;;
57969;SDS011;43777;42.656;23.264;2022-10-16T04:28:32;11.85;;;9.07;;
57969;SDS011;43777;42.656;23.264;2022-10-16T04:30:58;12.00;;;9.25;;
57969;SDS011;43777;42.656;23.264;2022-10-16T04:33:24;11.65;;;9.60;;
57969;SDS011;43777;42.656;23.264;2022-10-16T04:35:57;12.68;;;9.10;;
57969;SDS011;43777;42.656;23.264;2022-10-16T04:38:24;10.60;;;9.23;;
57969;SDS011;43777;42.656;23.264;2022-10-16T04:40:50;12.73;;;10.05;;
57969;SDS011;43777;42.656;23.264;2022-10-16T04:43:16;11.10;;;9.77;;
57969;SDS011;43777;42.656;23.264;2022-10-16T04:45:42;11.45;;;10.10;;
57969;SDS011;43777;42.656;23.264;2022-10-16T04:48:08;13.82;;;9.48;;
57969;SDS011;43777;42.656;23.264;2022-10-16T04:50:34;13.88;;;10.02;;
57969;SDS011;43777;42.656;23.264;2022-10-16T04:53:00;15.57;;;9.65;;
57969;SDS011;43777;42.656;23.264;2022-10-16T04:55:26;13.32;;;9.20;;
57969;SDS011;43777;42.656;23.264;2022-10-16T04:57:52;11.13;;;9.82;;
57969;SDS011;43777;42.656;23.264;2022-10-16T05:00:18;11.88;;;9.63;;
57969;SDS011;43777;42.656;23.264;2022-10-16T05:02:44;11.82;;;9.48;;
57969;SDS011;43777;42.656;23.264;2022-10-16T05:05:10;12.52;;;10.23;;
57969;SDS011;43777;42.656;23.264;2022-10-16T05:07:37;13.25;;;9.82;;
57969;SDS011;43777;42.656;23.264;2022-10-16T05:10:03;11.80;;;9.43;;
57969;SDS011;43777;42.656;23.264;2022-10-16T05:12:29;11.73;;;9.38;;
57969;SDS011;43777;42.656;23.264;2022-10-16T05:14:55;11.40;;;9.85;;
57969;SDS011;43777;42.656;23.264;2022-10-16T05:17:23;13.00;;;9.32;;
57969;SDS011;43777;42.656;23.264;2022-10-16T05:19:50;13.10;;;10.30;;
57969;SDS011;43777;42.656;23.264;2022-10-16T05:22:16;13.15;;;10.43;;
57969;SDS011;43777;42.656;23.264;2022-10-16T05:24:42;12.73;;;10.38;;
57969;SDS011;43777;42.656;23.264;2022-10-16T05:27:09;16.38;;;11.40;;
57969;SDS011;43777;42.656;23.264;2022-10-16T05:29:36;16.20;;;10.57;;
57969;SDS011;43777;42.656;23.264;2022-10-16T05:32:02;13.35;;;11.25;;
57969;SDS011;43777;42.656;23.264;2022-10-16T05:34:28;18.70;;;14.43;;
57969;SDS011;43777;42.656;23.264;2022-10-16T05:36:54;68.10;;;41.95;;
57969;SDS011;43777;42.656;23.264;2022-10-16T05:39:20;51.25;;;30.52;;
57969;SDS011;43777;42.656;23.264;2022-10-16T05:41:46;36.70;;;24.45;;
57969;SDS011;43777;42.656;23.264;2022-10-16T05:44:15;29.13;;;19.95;;
57969;SDS011;43777;42.656;23.264;2022-10-16T05:46:41;27.05;;;17.58;;
57969;SDS011;43777;42.656;23.264;2022-10-16T05:49:07;24.50;;;17.50;;
57969;SDS011;43777;42.656;23.264;2022-10-16T05:51:34;22.40;;;16.25;;
57969;SDS011;43777;42.656;23.264;2022-10-16T05:54:00;19.80;;;14.00;;
57969;SDS011;43777;42.656;23.264;2022-10-16T05:56:26;15.55;;;12.68;;
57969;SDS011;43777;42.656;23.264;2022-10-16T05:58:52;15.43;;;12.07;;
57969;SDS011;43777;42.656;23.264;2022-10-16T06:01:18;14.95;;;11.60;;
57969;SDS011;43777;42.656;23.264;2022-10-16T06:03:45;13.02;;;11.05;;
57969;SDS011;43777;42.656;23.264;2022-10-16T06:06:16;15.68;;;11.50;;
57969;SDS011;43777;42.656;23.264;2022-10-16T06:08:43;13.40;;;11.10;;
57969;SDS011;43777;42.656;23.264;2022-10-16T06:11:11;14.57;;;12.27;;
57969;SDS011;43777;42.656;23.264;2022-10-16T06:13:37;13.15;;;11.35;;
57969;SDS011;43777;42.656;23.264;2022-10-16T06:16:06;18.13;;;14.73;;
57969;SDS011;43777;42.656;23.264;2022-10-16T06:18:32;102.75;;;70.78;;
57969;SDS011;43777;42.656;23.264;2022-10-16T06:20:58;60.45;;;43.60;;
57969;SDS011;43777;42.656;23.264;2022-10-16T06:23:25;41.38;;;33.08;;
57969;SDS011;43777;42.656;23.264;2022-10-16T06:25:51;28.60;;;22.13;;
57969;SDS011;43777;42.656;23.264;2022-10-16T06:28:17;26.23;;;18.77;;
57969;SDS011;43777;42.656;23.264;2022-10-16T06:30:43;19.67;;;15.07;;
57969;SDS011;43777;42.656;23.264;2022-10-16T06:33:10;22.13;;;13.98;;
57969;SDS011;43777;42.656;23.264;2022-10-16T06:35:36;18.00;;;14.20;;
57969;SDS011;43777;42.656;23.264;2022-10-16T06:38:02;14.63;;;13.00;;
57969;SDS011;43777;42.656;23.264;2022-10-16T06:40:28;17.42;;;13.73;;
57969;SDS011;43777;42.656;23.264;2022-10-16T06:42:54;23.17;;;18.80;;
57969;SDS011;43777;42.656;23.264;2022-10-16T06:45:21;75.45;;;50.17;;
57969;SDS011;43777;42.656;23.264;2022-10-16T06:47:47;27.92;;;20.92;;
57969;SDS011;43777;42.656;23.264;2022-10-16T06:50:13;21.05;;;16.13;;
57969;SDS011;43777;42.656;23.264;2022-10-16T06:52:39;21.65;;;18.08;;
57969;SDS011;43777;42.656;23.264;2022-10-16T06:55:05;23.23;;;15.75;;
57969;SDS011;43777;42.656;23.264;2022-10-16T06:57:31;18.67;;;15.10;;
57969;SDS011;43777;42.656;23.264;2022-10-16T06:59:57;16.77;;;14.60;;
57969;SDS011;43777;42.656;23.264;2022-10-16T07:02:23;14.82;;;12.95;;
57969;SDS011;43777;42.656;23.264;2022-10-16T07:04:49;15.07;;;13.35;;
57969;SDS011;43777;42.656;23.264;2022-10-16T07:07:15;17.02;;;13.82;;
57969;SDS011;43777;42.656;23.264;2022-10-16T07:09:41;15.60;;;13.20;;
57969;SDS011;43777;42.656;23.264;2022-10-16T07:12:07;19.33;;;13.73;;
57969;SDS011;43777;42.656;23.264;2022-10-16T07:14:33;17.88;;;12.68;;
57969;SDS011;43777;42.656;23.264;2022-10-16T07:16:59;18.95;;;11.95;;
57969;SDS011;43777;42.656;23.264;2022-10-16T07:19:25;19.10;;;13.45;;
57969;SDS011;43777;42.656;23.264;2022-10-16T07:21:51;18.30;;;13.35;;
57969;SDS011;43777;42.656;23.264;2022-10-16T07:24:17;18.77;;;12.38;;
57969;SDS011;43777;42.656;23.264;2022-10-16T07:26:44;16.23;;;12.45;;
57969;SDS011;43777;42.656;23.264;2022-10-16T07:29:12;16.40;;;12.20;;
57969;SDS011;43777;42.656;23.264;2022-10-16T07:31:39;13.05;;;11.57;;
57969;SDS011;43777;42.656;23.264;2022-10-16T07:34:05;15.75;;;11.20;;
57969;SDS011;43777;42.656;23.264;2022-10-16T07:36:31;20.45;;;10.88;;
57969;SDS011;43777;42.656;23.264;2022-10-16T07:38:57;13.68;;;10.43;;
57969;SDS011;43777;42.656;23.264;2022-10-16T07:41:23;12.07;;;10.00;;
57969;SDS011;43777;42.656;23.264;2022-10-16T07:43:50;13.80;;;9.77;;
57969;SDS011;43777;42.656;23.264;2022-10-16T07:46:16;12.57;;;10.05;;
57969;SDS011;43777;42.656;23.264;2022-10-16T07:48:43;11.27;;;10.02;;
57969;SDS011;43777;42.656;23.264;2022-10-16T07:51:12;10.50;;;9.40;;
57969;SDS011;43777;42.656;23.264;2022-10-16T07:53:38;13.63;;;9.52;;
57969;SDS011;43777;42.656;23.264;2022-10-16T07:56:05;11.10;;;9.63;;
57969;SDS011;43777;42.656;23.264;2022-10-16T07:58:31;13.02;;;10.65;;
57969;SDS011;43777;42.656;23.264;2022-10-16T08:00:58;9.85;;;8.90;;
57969;SDS011;43777;42.656;23.264;2022-10-16T08:03:24;10.68;;;8.48;;
57969;SDS011;43777;42.656;23.264;2022-10-16T08:05:51;10.05;;;9.05;;
57969;SDS011;43777;42.656;23.264;2022-10-16T08:08:17;12.25;;;8.00;;
57969;SDS011;43777;42.656;23.264;2022-10-16T08:10:44;10.95;;;8.90;;
57969;SDS011;43777;42.656;23.264;2022-10-16T08:13:10;12.95;;;8.73;;
57969;SDS011;43777;42.656;23.264;2022-10-16T08:15:37;11.40;;;9.50;;
57969;SDS011;43777;42.656;23.264;2022-10-16T08:18:04;28.80;;;10.35;;
57969;SDS011;43777;42.656;23.264;2022-10-16T08:20:31;13.00;;;10.15;;
57969;SDS011;43777;42.656;23.264;2022-10-16T08:22:58;15.80;;;10.82;;
57969;SDS011;43777;42.656;23.264;2022-10-16T08:25:24;12.88;;;9.60;;
57969;SDS011;43777;42.656;23.264;2022-10-16T08:27:50;18.55;;;10.27;;
57969;SDS011;43777;42.656;23.264;2022-10-16T08:30:17;11.70;;;10.55;;
57969;SDS011;43777;42.656;23.264;2022-10-16T08:32:43;14.43;;;10.73;;
57969;SDS011;43777;42.656;23.264;2022-10-16T08:35:10;11.40;;;10.23;;
57969;SDS011;43777;42.656;23.264;2022-10-16T08:37:36;14.23;;;10.02;;
57969;SDS011;43777;42.656;23.264;2022-10-16T08:40:04;13.85;;;9.75;;
57969;SDS011;43777;42.656;23.264;2022-10-16T08:45:02;15.07;;;11.05;;
57969;SDS011;43777;42.656;23.264;2022-10-16T08:50:28;11.30;;;9.98;;
57969;SDS011;43777;42.656;23.264;2022-10-16T08:52:55;12.52;;;9.98;;
57969;SDS011;43777;42.656;23.264;2022-10-16T08:57:57;12.82;;;8.98;;
57969;SDS011;43777;42.656;23.264;2022-10-16T09:00:23;11.88;;;8.70;;
57969;SDS011;43777;42.656;23.264;2022-10-16T09:02:57;16.08;;;9.18;;
57969;SDS011;43777;42.656;23.264;2022-10-16T09:15:32;13.88;;;6.38;;
57969;SDS011;43777;42.656;23.264;2022-10-16T09:18:02;6.97;;;5.22;;
57969;SDS011;43777;42.656;23.264;2022-10-16T09:23:34;7.82;;;6.10;;
57969;SDS011;43777;42.656;23.264;2022-10-16T09:26:00;10.63;;;5.47;;
57969;SDS011;43777;42.656;23.264;2022-10-16T09:28:27;6.13;;;4.93;;
57969;SDS011;43777;42.656;23.264;2022-10-16T09:30:53;5.68;;;4.93;;
57969;SDS011;43777;42.656;23.264;2022-10-16T09:33:21;8.13;;;5.30;;
57969;SDS011;43777;42.656;23.264;2022-10-16T09:35:54;7.93;;;5.25;;
57969;SDS011;43777;42.656;23.264;2022-10-16T09:38:24;7.28;;;5.43;;
57969;SDS011;43777;42.656;23.264;2022-10-16T09:40:51;6.28;;;4.50;;
57969;SDS011;43777;42.656;23.264;2022-10-16T09:43:24;5.97;;;4.97;;
57969;SDS011;43777;42.656;23.264;2022-10-16T09:46:00;9.63;;;6.00;;
57969;SDS011;43777;42.656;23.264;2022-10-16T09:48:28;5.85;;;5.25;;
57969;SDS011;43777;42.656;23.264;2022-10-16T09:51:00;8.88;;;5.68;;
57969;SDS011;43777;42.656;23.264;2022-10-16T09:53:36;5.63;;;4.95;;
57969;SDS011;43777;42.656;23.264;2022-10-16T09:56:03;5.55;;;5.00;;
57969;SDS011;43777;42.656;23.264;2022-10-16T09:58:31;7.63;;;4.88;;
57969;SDS011;43777;42.656;23.264;2022-10-16T10:00:58;4.55;;;4.15;;
57969;SDS011;43777;42.656;23.264;2022-10-16T10:03:35;11.35;;;4.82;;
57969;SDS011;43777;42.656;23.264;2022-10-16T10:06:35;7.63;;;4.85;;
57969;SDS011;43777;42.656;23.264;2022-10-16T10:14:17;4.85;;;4.32;;
57969;SDS011;43777;42.656;23.264;2022-10-16T10:16:44;8.02;;;4.38;;
57969;SDS011;43777;42.656;23.264;2022-10-16T10:19:14;6.80;;;4.78;;
57969;SDS011;43777;42.656;23.264;2022-10-16T10:21:40;5.50;;;4.82;;
57969;SDS011;43777;42.656;23.264;2022-10-16T10:24:16;5.65;;;4.65;;
57969;SDS011;43777;42.656;23.264;2022-10-16T10:29:34;6.07;;;4.75;;
57969;SDS011;43777;42.656;23.264;2022-10-16T10:37:29;6.43;;;4.30;;
57969;SDS011;43777;42.656;23.264;2022-10-16T10:40:17;5.45;;;4.50;;
57969;SDS011;43777;42.656;23.264;2022-10-16T10:45:22;7.03;;;3.90;;
57969;SDS011;43777;42.656;23.264;2022-10-16T10:47:57;6.13;;;4.25;;
57969;SDS011;43777;42.656;23.264;2022-10-16T10:55:53;22.08;;;5.65;;
57969;SDS011;43777;42.656;23.264;2022-10-16T11:16:11;6.13;;;4.30;;
57969;SDS011;43777;42.656;23.264;2022-10-16T11:19:14;5.22;;;4.53;;
57969;SDS011;43777;42.656;23.264;2022-10-16T11:21:34;4.90;;;4.40;;
57969;SDS011;43777;42.656;23.264;2022-10-16T11:24:05;5.03;;;4.00;;
57969;SDS011;43777;42.656;23.264;2022-10-16T11:26:35;7.20;;;3.90;;
57969;SDS011;43777;42.656;23.264;2022-10-16T11:29:04;5.13;;;3.40;;
57969;SDS011;43777;42.656;23.264;2022-10-16T11:31:48;5.68;;;3.80;;
57969;SDS011;43777;42.656;23.264;2022-10-16T11:34:26;7.53;;;4.00;;
57969;SDS011;43777;42.656;23.264;2022-10-16T11:36:59;4.10;;;3.60;;
57969;SDS011;43777;42.656;23.264;2022-10-16T11:39:27;7.25;;;4.07;;
57969;SDS011;43777;42.656;23.264;2022-10-16T11:41:55;3.97;;;3.58;;
57969;SDS011;43777;42.656;23.264;2022-10-16T11:49:32;5.40;;;3.03;;
57969;SDS011;43777;42.656;23.264;2022-10-16T11:52:02;4.00;;;3.42;;
57969;SDS011;43777;42.656;23.264;2022-10-16T11:54:43;3.83;;;3.30;;
57969;SDS011;43777;42.656;23.264;2022-10-16T11:57:22;12.13;;;4.07;;
57969;SDS011;43777;42.656;23.264;2022-10-16T12:07:27;3.65;;;3.35;;
57969;SDS011;43777;42.656;23.264;2022-10-16T12:09:56;3.63;;;3.08;;
57969;SDS011;43777;42.656;23.264;2022-10-16T12:15:02;2.78;;;2.58;;
57969;SDS011;43777;42.656;23.264;2022-10-16T12:17:35;7.63;;;3.05;;
57969;SDS011;43777;42.656;23.264;2022-10-16T12:20:24;4.22;;;3.33;;
57969;SDS011;43777;42.656;23.264;2022-10-16T12:22:49;3.92;;;3.30;;
57969;SDS011;43777;42.656;23.264;2022-10-16T12:25:26;5.25;;;2.88;;
57969;SDS011;43777;42.656;23.264;2022-10-16T12:30:29;3.35;;;3.05;;
57969;SDS011;43777;42.656;23.264;2022-10-16T12:32:57;3.97;;;3.15;;
57969;SDS011;43777;42.656;23.264;2022-10-16T12:35:27;4.88;;;3.00;;
57969;SDS011;43777;42.656;23.264;2022-10-16T12:37:54;5.13;;;3.50;;
57969;SDS011;43777;42.656;23.264;2022-10-16T12:40:30;6.07;;;3.10;;
57969;SDS011;43777;42.656;23.264;2022-10-16T12:42:56;3.78;;;3.42;;
57969;SDS011;43777;42.656;23.264;2022-10-16T12:47:49;3.80;;;3.15;;
57969;SDS011;43777;42.656;23.264;2022-10-16T12:50:23;3.92;;;3.22;;
57969;SDS011;43777;42.656;23.264;2022-10-16T12:52:49;3.72;;;3.20;;
57969;SDS011;43777;42.656;23.264;2022-10-16T12:55:16;5.13;;;3.65;;
57969;SDS011;43777;42.656;23.264;2022-10-16T13:08:44;5.82;;;3.10;;
57969;SDS011;43777;42.656;23.264;2022-10-16T13:13:44;5.45;;;3.70;;
57969;SDS011;43777;42.656;23.264;2022-10-16T13:23:54;4.20;;;3.80;;
57969;SDS011;43777;42.656;23.264;2022-10-16T13:28:49;5.20;;;4.40;;
57969;SDS011;43777;42.656;23.264;2022-10-16T13:31:19;5.15;;;3.92;;
57969;SDS011;43777;42.656;23.264;2022-10-16T13:33:47;4.35;;;3.58;;
57969;SDS011;43777;42.656;23.264;2022-10-16T13:36:19;4.30;;;3.33;;
57969;SDS011;43777;42.656;23.264;2022-10-16T13:38:45;5.35;;;3.90;;
57969;SDS011;43777;42.656;23.264;2022-10-16T13:41:16;8.05;;;3.63;;
57969;SDS011;43777;42.656;23.264;2022-10-16T13:43:51;6.80;;;3.67;;
57969;SDS011;43777;42.656;23.264;2022-10-16T13:46:19;3.83;;;3.53;;
57969;SDS011;43777;42.656;23.264;2022-10-16T13:51:24;7.45;;;3.60;;
57969;SDS011;43777;42.656;23.264;2022-10-16T13:53:50;3.45;;;3.15;;
57969;SDS011;43777;42.656;23.264;2022-10-16T13:56:17;4.03;;;3.20;;
57969;SDS011;43777;42.656;23.264;2022-10-16T13:58:44;5.55;;;3.92;;
57969;SDS011;43777;42.656;23.264;2022-10-16T14:01:20;6.40;;;3.95;;
57969;SDS011;43777;42.656;23.264;2022-10-16T14:03:46;4.68;;;3.83;;
57969;SDS011;43777;42.656;23.264;2022-10-16T14:06:17;6.25;;;3.58;;
57969;SDS011;43777;42.656;23.264;2022-10-16T14:08:48;6.18;;;3.70;;
57969;SDS011;43777;42.656;23.264;2022-10-16T14:11:20;4.20;;;3.50;;
57969;SDS011;43777;42.656;23.264;2022-10-16T14:13:47;6.03;;;4.13;;
57969;SDS011;43777;42.656;23.264;2022-10-16T14:16:17;5.00;;;3.42;;
57969;SDS011;43777;42.656;23.264;2022-10-16T14:18:45;5.38;;;3.60;;
57969;SDS011;43777;42.656;23.264;2022-10-16T14:21:12;6.10;;;4.13;;
57969;SDS011;43777;42.656;23.264;2022-10-16T14:23:39;5.15;;;3.60;;
57969;SDS011;43777;42.656;23.264;2022-10-16T14:28:36;7.07;;;4.40;;
57969;SDS011;43777;42.656;23.264;2022-10-16T14:33:50;5.28;;;4.07;;
57969;SDS011;43777;42.656;23.264;2022-10-16T14:36:16;7.28;;;4.40;;
57969;SDS011;43777;42.656;23.264;2022-10-16T14:41:15;6.13;;;4.50;;
57969;SDS011;43777;42.656;23.264;2022-10-16T14:43:49;5.90;;;4.32;;
57969;SDS011;43777;42.656;23.264;2022-10-16T14:46:16;4.57;;;4.18;;
57969;SDS011;43777;42.656;23.264;2022-10-16T14:48:43;4.25;;;3.85;;
57969;SDS011;43777;42.656;23.264;2022-10-16T14:51:15;5.97;;;3.88;;
57969;SDS011;43777;42.656;23.264;2022-10-16T14:53:41;6.13;;;3.80;;
57969;SDS011;43777;42.656;23.264;2022-10-16T14:56:08;6.35;;;3.95;;
57969;SDS011;43777;42.656;23.264;2022-10-16T14:58:34;7.70;;;3.42;;
57969;SDS011;43777;42.656;23.264;2022-10-16T15:01:01;4.43;;;3.97;;
57969;SDS011;43777;42.656;23.264;2022-10-16T15:03:27;4.40;;;3.63;;
57969;SDS011;43777;42.656;23.264;2022-10-16T15:05:53;6.45;;;3.95;;
57969;SDS011;43777;42.656;23.264;2022-10-16T15:08:19;8.27;;;4.40;;
57969;SDS011;43777;42.656;23.264;2022-10-16T15:10:45;8.48;;;4.30;;
57969;SDS011;43777;42.656;23.264;2022-10-16T15:13:11;6.20;;;4.60;;
57969;SDS011;43777;42.656;23.264;2022-10-16T15:15:42;7.43;;;4.70;;
57969;SDS011;43777;42.656;23.264;2022-10-16T15:18:08;8.05;;;4.50;;
57969;SDS011;43777;42.656;23.264;2022-10-16T15:20:35;16.38;;;11.40;;
57969;SDS011;43777;42.656;23.264;2022-10-16T15:23:02;10.20;;;7.22;;
57969;SDS011;43777;42.656;23.264;2022-10-16T15:27:58;7.57;;;5.10;;
57969;SDS011;43777;42.656;23.264;2022-10-16T15:30:24;8.38;;;5.15;;
57969;SDS011;43777;42.656;23.264;2022-10-16T15:32:50;10.52;;;6.30;;
57969;SDS011;43777;42.656;23.264;2022-10-16T15:35:16;15.30;;;7.25;;
57969;SDS011;43777;42.656;23.264;2022-10-16T15:37:43;13.65;;;8.88;;
57969;SDS011;43777;42.656;23.264;2022-10-16T15:40:09;21.60;;;14.05;;
57969;SDS011;43777;42.656;23.264;2022-10-16T15:42:36;11.60;;;7.03;;
57969;SDS011;43777;42.656;23.264;2022-10-16T15:45:02;10.00;;;7.53;;
57969;SDS011;43777;42.656;23.264;2022-10-16T15:47:29;31.92;;;21.25;;
57969;SDS011;43777;42.656;23.264;2022-10-16T15:49:55;29.02;;;20.58;;
57969;SDS011;43777;42.656;23.264;2022-10-16T15:52:21;32.67;;;20.02;;
57969;SDS011;43777;42.656;23.264;2022-10-16T15:54:47;12.00;;;9.65;;
57969;SDS011;43777;42.656;23.264;2022-10-16T15:57:13;14.27;;;9.25;;
57969;SDS011;43777;42.656;23.264;2022-10-16T15:59:39;18.02;;;8.30;;
57969;SDS011;43777;42.656;23.264;2022-10-16T16:02:05;14.50;;;7.45;;
57969;SDS011;43777;42.656;23.264;2022-10-16T16:04:32;9.05;;;6.05;;
57969;SDS011;43777;42.656;23.264;2022-10-16T16:06:58;10.00;;;5.97;;
57969;SDS011;43777;42.656;23.264;2022-10-16T16:09:24;5.97;;;5.20;;
57969;SDS011;43777;42.656;23.264;2022-10-16T16:11:50;10.48;;;5.68;;
57969;SDS011;43777;42.656;23.264;2022-10-16T16:14:17;11.85;;;6.20;;
57969;SDS011;43777;42.656;23.264;2022-10-16T16:16:43;7.55;;;5.78;;
57969;SDS011;43777;42.656;23.264;2022-10-16T16:19:09;11.45;;;6.30;;
57969;SDS011;43777;42.656;23.264;2022-10-16T16:21:35;10.57;;;6.82;;
57969;SDS011;43777;42.656;23.264;2022-10-16T16:24:01;10.35;;;7.75;;
57969;SDS011;43777;42.656;23.264;2022-10-16T16:26:33;18.15;;;12.45;;
57969;SDS011;43777;42.656;23.264;2022-10-16T16:29:02;17.60;;;10.48;;
57969;SDS011;43777;42.656;23.264;2022-10-16T16:31:28;21.77;;;16.35;;
57969;SDS011;43777;42.656;23.264;2022-10-16T16:33:55;29.23;;;16.13;;
57969;SDS011;43777;42.656;23.264;2022-10-16T16:36:21;16.63;;;9.23;;
57969;SDS011;43777;42.656;23.264;2022-10-16T16:38:48;32.60;;;18.13;;
57969;SDS011;43777;42.656;23.264;2022-10-16T16:41:18;36.95;;;24.92;;
57969;SDS011;43777;42.656;23.264;2022-10-16T16:43:45;36.75;;;25.85;;
57969;SDS011;43777;42.656;23.264;2022-10-16T16:46:12;38.42;;;27.80;;